Time;durP1;ratioP1;P1;durP2;ratioP2;P2;SDS_P1;SDS_P2;PMS_P1;PMS_P2;Temp;Humidity;BMP_temperature;BMP_pressure;BME280_temperature;BME280_humidity;BME280_pressure;Samples;Min_cycle;Max_cycle;Signal;HPM_P1;HPM_P2
2023/06/22 00:02:18;;;;;;;6.18;2.28;;;23.50;99.90;;;;;;5074774;28;20420;-68
2023/06/22 00:04:44;;;;;;;6.97;2.45;;;23.60;99.90;;;;;;5074471;28;20036;-68
2023/06/22 00:07:10;;;;;;;5.82;1.92;;;23.40;99.90;;;;;;5092857;28;20028;-68
2023/06/22 00:09:36;;;;;;;5.30;2.42;;;23.60;99.90;;;;;;5092473;28;20463;-68
2023/06/22 00:12:02;;;;;;;8.05;2.47;;;23.70;99.90;;;;;;5074594;28;20042;-69
2023/06/22 00:14:28;;;;;;;5.57;2.30;;;23.60;99.90;;;;;;5074324;28;20106;-69
2023/06/22 00:16:55;;;;;;;4.63;2.20;;;23.50;99.90;;;;;;5074336;28;20062;-68
2023/06/22 00:19:21;;;;;;;4.90;2.60;;;23.50;99.90;;;;;;5092244;28;20036;-69
2023/06/22 00:21:52;;;;;;;5.03;2.38;;;23.50;99.90;;;;;;5074124;28;20032;-68
2023/06/22 00:24:24;;;;;;;3.08;1.58;;;23.60;99.90;;;;;;5074837;28;20035;-68
2023/06/22 00:26:49;;;;;;;3.35;1.83;;;23.70;99.90;;;;;;5073533;28;20058;-68
2023/06/22 00:29:16;;;;;;;5.18;2.30;;;23.70;99.90;;;;;;5092096;28;20479;-69
2023/06/22 00:31:41;;;;;;;6.55;2.13;;;23.90;99.90;;;;;;5057206;28;20028;-68
2023/06/22 00:34:08;;;;;;;5.50;2.50;;;23.90;99.90;;;;;;5092026;28;20024;-68
2023/06/22 00:36:35;;;;;;;4.90;2.33;;;23.90;99.90;;;;;;5092190;28;20115;-67
2023/06/22 00:39:01;;;;;;;4.35;2.40;;;23.90;99.90;;;;;;5073868;28;20499;-68
2023/06/22 00:41:29;;;;;;;3.45;2.03;;;23.90;99.90;;;;;;5073789;28;20039;-68
2023/06/22 00:43:55;;;;;;;8.65;2.40;;;23.80;99.90;;;;;;5092034;28;20032;-68
2023/06/22 00:46:22;;;;;;;9.85;2.90;;;23.70;99.90;;;;;;5092054;28;20031;-68
2023/06/22 00:48:50;;;;;;;4.50;2.60;;;23.50;99.90;;;;;;5073872;28;20031;-68
2023/06/22 00:51:16;;;;;;;7.55;2.60;;;23.60;99.90;;;;;;5073724;28;20031;-68
2023/06/22 00:53:43;;;;;;;7.72;2.72;;;23.60;99.90;;;;;;5073790;28;20096;-69
2023/06/22 00:56:12;;;;;;;8.48;3.20;;;23.60;99.90;;;;;;5073886;28;20028;-69
2023/06/22 00:58:41;;;;;;;5.72;2.78;;;23.70;99.90;;;;;;5074392;28;20509;-68
2023/06/22 01:01:07;;;;;;;10.70;3.97;;;23.70;99.90;;;;;;5073840;28;20063;-68
2023/06/22 01:03:33;;;;;;;11.35;3.72;;;23.80;99.90;;;;;;5091562;28;20490;-68
2023/06/22 01:06:17;;;;;;;6.30;2.75;;;23.70;99.90;;;;;;5080288;28;20067;-68
2023/06/22 01:09:00;;;;;;;5.55;3.20;;;23.70;99.90;;;;;;5074886;28;20835;-68
2023/06/22 01:11:38;;;;;;;8.23;4.18;;;23.20;99.90;;;;;;5064427;28;20032;-68
2023/06/22 01:14:12;;;;;;;7.72;3.35;;;23.00;99.90;;;;;;5091248;28;20027;-68
2023/06/22 01:16:43;;;;;;;6.18;3.20;;;22.80;99.90;;;;;;5073960;28;20104;-68
2023/06/22 01:19:47;;;;;;;5.95;3.22;;;22.60;99.90;;;;;;5091328;28;20452;-68
2023/06/22 01:22:17;;;;;;;6.35;3.40;;;22.60;99.90;;;;;;5074255;28;20028;-69
2023/06/22 01:25:00;;;;;;;8.38;3.60;;;22.50;99.90;;;;;;5076426;28;20036;-68
2023/06/22 01:27:49;;;;;;;7.38;3.38;;;22.40;99.90;;;;;;5070697;28;20502;-69
2023/06/22 01:30:18;;;;;;;7.07;3.35;;;22.50;99.90;;;;;;5069736;28;20025;-68
2023/06/22 01:32:44;;;;;;;5.22;3.10;;;22.60;99.90;;;;;;5069715;28;20068;-68
2023/06/22 01:35:12;;;;;;;9.10;3.17;;;22.60;99.90;;;;;;5069808;28;20029;-69
2023/06/22 01:37:38;;;;;;;8.23;3.78;;;22.60;99.90;;;;;;5052919;28;20368;-69
2023/06/22 01:40:08;;;;;;;11.75;3.63;;;22.60;99.90;;;;;;5053208;28;20047;-70
2023/06/22 01:42:35;;;;;;;7.47;3.58;;;22.50;99.90;;;;;;5056591;28;20511;-68
2023/06/22 01:45:02;;;;;;;7.53;4.00;;;22.50;99.90;;;;;;5073172;28;20035;-69
2023/06/22 01:47:29;;;;;;;6.93;3.42;;;22.50;99.90;;;;;;5072894;28;20075;-69
2023/06/22 01:49:56;;;;;;;7.55;3.65;;;22.40;99.90;;;;;;5072618;28;20024;-69
2023/06/22 01:52:21;;;;;;;8.05;3.97;;;22.40;99.90;;;;;;5072890;28;20028;-69
2023/06/22 01:54:50;;;;;;;5.85;3.63;;;22.20;99.90;;;;;;5073056;28;20093;-69
2023/06/22 01:57:16;;;;;;;9.88;3.80;;;22.20;99.90;;;;;;5073051;28;20020;-69
2023/06/22 02:00:12;;;;;;;8.98;3.60;;;22.00;99.90;;;;;;5072757;28;20127;-69
2023/06/22 02:02:58;;;;;;;6.50;3.65;;;21.90;99.90;;;;;;5073190;28;20028;-69
2023/06/22 02:05:30;;;;;;;5.30;3.58;;;21.80;99.90;;;;;;5090618;28;20568;-70
2023/06/22 02:08:24;;;;;;;7.28;3.58;;;21.90;99.90;;;;;;5073515;28;20059;-69
2023/06/22 02:10:52;;;;;;;12.00;4.45;;;21.90;99.90;;;;;;5073156;28;20043;-69
2023/06/22 02:13:19;;;;;;;9.15;4.03;;;21.80;99.90;;;;;;5072759;28;20741;-69
2023/06/22 02:15:47;;;;;;;7.47;4.18;;;21.90;99.90;;;;;;5072453;28;20032;-70
2023/06/22 02:18:13;;;;;;;13.30;3.88;;;21.90;99.90;;;;;;5072745;28;20032;-70
2023/06/22 02:20:40;;;;;;;10.45;4.40;;;21.70;99.90;;;;;;5072451;28;20024;-69
2023/06/22 02:23:07;;;;;;;7.40;3.65;;;21.80;99.90;;;;;;5072326;28;20024;-69
2023/06/22 02:25:33;;;;;;;7.05;4.00;;;21.90;99.90;;;;;;5072203;28;20368;-69
2023/06/22 02:27:59;;;;;;;9.55;4.20;;;21.80;99.90;;;;;;5072852;28;20028;-69
2023/06/22 02:30:25;;;;;;;9.63;4.22;;;21.80;99.90;;;;;;5055705;28;20031;-69
2023/06/22 02:32:58;;;;;;;5.95;3.75;;;22.00;99.90;;;;;;5072610;28;20032;-68
2023/06/22 02:35:31;;;;;;;8.02;4.10;;;22.10;99.90;;;;;;5090691;28;20056;-68
2023/06/22 02:38:01;;;;;;;8.82;4.07;;;22.20;99.90;;;;;;5090445;28;20103;-68
2023/06/22 02:40:29;;;;;;;8.88;4.50;;;22.10;99.90;;;;;;5072096;28;20085;-68
2023/06/22 02:42:55;;;;;;;7.70;3.92;;;22.20;99.90;;;;;;5072410;28;20035;-68
2023/06/22 02:45:21;;;;;;;9.23;4.22;;;22.10;99.90;;;;;;5072031;28;20369;-68
2023/06/22 02:47:50;;;;;;;12.57;4.65;;;22.00;99.90;;;;;;5090224;28;20031;-68
2023/06/22 02:50:15;;;;;;;10.77;4.13;;;22.00;99.90;;;;;;5093269;28;20391;-68
2023/06/22 02:52:41;;;;;;;9.43;4.25;;;22.10;99.90;;;;;;5094162;28;20032;-68
2023/06/22 02:55:08;;;;;;;8.40;4.53;;;21.90;99.90;;;;;;5075888;28;20396;-68
2023/06/22 02:57:34;;;;;;;7.85;4.03;;;21.80;99.90;;;;;;5093714;28;20089;-68
2023/06/22 02:59:59;;;;;;;10.18;4.35;;;21.70;99.90;;;;;;5075714;28;20066;-68
2023/06/22 03:02:26;;;;;;;9.02;4.68;;;21.50;99.90;;;;;;5071587;28;20029;-68
2023/06/22 03:04:53;;;;;;;7.32;4.20;;;21.50;99.90;;;;;;5100303;22;20040;-68
2023/06/22 03:07:20;;;;;;;12.45;4.55;;;21.60;99.90;;;;;;5075468;28;20132;-68
2023/06/22 03:09:46;;;;;;;7.13;3.97;;;21.60;99.90;;;;;;5093156;28;20070;-68
2023/06/22 03:12:12;;;;;;;8.40;4.32;;;21.50;99.90;;;;;;5093321;28;20416;-67
2023/06/22 03:14:38;;;;;;;6.82;4.30;;;21.30;99.90;;;;;;5089389;28;20487;-68
2023/06/22 03:17:06;;;;;;;7.55;4.65;;;21.20;99.90;;;;;;5073434;28;20043;-68
2023/06/22 03:19:31;;;;;;;13.25;4.50;;;21.30;99.90;;;;;;5078268;28;20092;-68
2023/06/22 03:21:59;;;;;;;9.68;4.78;;;21.40;99.90;;;;;;5093455;28;20035;-68
2023/06/22 03:24:28;;;;;;;7.45;4.30;;;21.30;99.90;;;;;;5093044;28;20043;-67
2023/06/22 03:26:54;;;;;;;10.68;5.63;;;21.20;99.90;;;;;;5091983;28;20068;-67
2023/06/22 03:29:20;;;;;;;12.18;5.00;;;21.30;99.90;;;;;;5093246;28;20020;-68
2023/06/22 03:31:46;;;;;;;14.00;4.93;;;21.20;99.90;;;;;;5092963;28;20035;-68
2023/06/22 03:34:12;;;;;;;9.00;5.15;;;21.10;99.90;;;;;;5091613;28;20111;-68
2023/06/22 03:36:37;;;;;;;8.93;4.55;;;21.10;99.90;;;;;;5087526;28;20040;-68
2023/06/22 03:39:03;;;;;;;9.57;5.10;;;21.10;99.90;;;;;;5072843;28;20036;-68
2023/06/22 03:41:29;;;;;;;12.20;4.82;;;21.20;99.90;;;;;;5071352;28;20560;-68
2023/06/22 03:43:54;;;;;;;9.25;4.38;;;21.20;99.90;;;;;;5072428;28;20060;-68
2023/06/22 03:46:20;;;;;;;9.00;4.38;;;21.20;99.90;;;;;;5072771;28;20029;-69
2023/06/22 03:48:46;;;;;;;12.05;4.80;;;21.10;99.90;;;;;;5072729;28;20634;-68
2023/06/22 03:51:11;;;;;;;10.80;5.82;;;21.20;99.90;;;;;;5072239;28;20032;-68
2023/06/22 03:53:37;;;;;;;7.82;4.35;;;21.20;99.90;;;;;;5072335;28;20024;-68
2023/06/22 03:56:03;;;;;;;9.90;4.65;;;21.30;99.90;;;;;;5072558;28;20545;-68
2023/06/22 03:58:32;;;;;;;8.77;4.50;;;21.20;99.90;;;;;;5071195;28;20140;-68
2023/06/22 04:00:59;;;;;;;9.73;5.00;;;21.20;99.90;;;;;;5072056;28;20039;-69
2023/06/22 04:03:25;;;;;;;13.90;5.25;;;21.20;99.90;;;;;;5071095;28;20036;-68
2023/06/22 04:05:51;;;;;;;10.48;4.60;;;21.10;99.90;;;;;;5072370;28;20429;-68
2023/06/22 04:08:17;;;;;;;8.15;4.07;;;21.00;99.90;;;;;;5072196;28;20048;-69
2023/06/22 04:10:43;;;;;;;9.10;4.07;;;21.00;99.90;;;;;;5075943;28;20111;-68
2023/06/22 04:13:09;;;;;;;7.03;4.00;;;21.10;99.90;;;;;;5092342;28;20116;-69
2023/06/22 04:15:35;;;;;;;8.07;3.53;;;21.20;99.90;;;;;;5080333;28;20553;-69
2023/06/22 04:18:01;;;;;;;9.15;3.90;;;21.20;99.90;;;;;;5072140;28;20025;-68
2023/06/22 04:20:27;;;;;;;7.90;3.47;;;21.20;99.90;;;;;;5070475;28;20427;-68
2023/06/22 04:22:54;;;;;;;7.15;2.88;;;21.30;99.90;;;;;;5072035;28;20033;-68
2023/06/22 04:25:20;;;;;;;10.68;3.58;;;21.20;99.90;;;;;;5071491;28;20373;-68
2023/06/22 04:27:48;;;;;;;8.85;3.17;;;21.30;99.90;;;;;;5070668;28;20021;-68
2023/06/22 04:30:17;;;;;;;8.48;3.35;;;21.40;99.90;;;;;;5070515;28;20059;-69
2023/06/22 04:32:44;;;;;;;7.32;2.97;;;21.40;99.90;;;;;;5071651;28;20052;-69
2023/06/22 04:35:11;;;;;;;4.72;2.92;;;21.50;99.90;;;;;;5071569;28;20646;-69
2023/06/22 04:37:37;;;;;;;7.78;3.30;;;21.60;99.90;;;;;;5070189;28;20035;-68
2023/06/22 04:40:05;;;;;;;8.70;3.70;;;21.50;99.90;;;;;;5070210;28;20029;-69
2023/06/22 04:42:31;;;;;;;7.00;3.60;;;21.60;99.90;;;;;;5070399;28;20044;-69
2023/06/22 04:44:57;;;;;;;10.18;3.60;;;21.70;99.90;;;;;;5071367;28;20025;-68
2023/06/22 04:47:23;;;;;;;7.35;3.63;;;21.70;99.90;;;;;;5071449;28;20033;-68
2023/06/22 04:49:49;;;;;;;8.23;3.95;;;21.70;99.90;;;;;;5070998;28;20048;-68
2023/06/22 04:52:17;;;;;;;7.60;3.88;;;21.80;99.90;;;;;;5071072;28;20135;-68
2023/06/22 04:54:50;;;;;;;10.57;4.82;;;21.70;99.90;;;;;;5071165;28;20467;-68
2023/06/22 04:57:16;;;;;;;9.98;4.03;;;21.60;99.90;;;;;;5070013;28;20115;-69
2023/06/22 04:59:43;;;;;;;8.38;3.83;;;21.80;99.90;;;;;;5070949;28;20115;-67
2023/06/22 05:02:10;;;;;;;6.57;3.33;;;21.80;99.90;;;;;;5071168;28;20032;-68
2023/06/22 05:04:38;;;;;;;8.52;3.72;;;21.80;99.90;;;;;;5069748;28;20085;-68
2023/06/22 05:07:04;;;;;;;6.78;3.55;;;21.90;99.90;;;;;;5071040;28;20149;-68
2023/06/22 05:09:30;;;;;;;12.55;3.83;;;22.10;99.90;;;;;;5070727;28;20067;-68
2023/06/22 05:11:56;;;;;;;6.13;3.92;;;22.20;99.90;;;;;;5086057;28;20031;-68
2023/06/22 05:14:22;;;;;;;10.43;5.28;;;22.30;99.90;;;;;;5088384;28;20028;-68
2023/06/22 05:16:49;;;;;;;7.70;3.15;;;22.40;99.90;;;;;;5069513;28;20111;-68
2023/06/22 05:19:15;;;;;;;8.35;3.60;;;22.40;99.90;;;;;;5053070;28;20032;-68
2023/06/22 05:21:40;;;;;;;10.68;3.05;;;22.40;99.90;;;;;;5070409;28;20029;-68
2023/06/22 05:24:06;;;;;;;9.55;3.40;;;22.40;99.90;;;;;;5070909;28;20035;-68
2023/06/22 05:26:34;;;;;;;15.68;3.50;;;22.40;99.90;;;;;;5071070;28;20040;-68
2023/06/22 05:29:02;;;;;;;8.88;3.95;;;22.40;99.90;;;;;;5069583;28;20384;-69
2023/06/22 05:31:28;;;;;;;6.07;3.40;;;22.40;99.90;;;;;;5068957;28;20103;-68
2023/06/22 05:33:55;;;;;;;8.93;3.33;;;22.40;99.90;;;;;;5069202;28;20043;-69
2023/06/22 05:36:25;;;;;;;8.98;2.72;;;22.40;99.90;;;;;;5070847;28;20111;-68
2023/06/22 05:38:52;;;;;;;5.38;3.00;;;22.40;99.90;;;;;;5069360;28;20103;-69
2023/06/22 05:41:18;;;;;;;6.85;2.85;;;22.70;99.90;;;;;;5069072;28;20028;-69
2023/06/22 05:43:44;;;;;;;4.88;2.72;;;22.70;99.90;;;;;;5069337;28;20098;-68
2023/06/22 05:46:09;;;;;;;8.57;3.17;;;22.90;99.90;;;;;;5069387;28;20476;-69
2023/06/22 05:48:35;;;;;;;5.97;3.05;;;23.00;99.90;;;;;;5070689;28;20029;-68
2023/06/22 05:51:01;;;;;;;6.07;3.03;;;23.10;99.90;;;;;;5070039;28;20052;-69
2023/06/22 05:53:27;;;;;;;5.70;2.83;;;23.30;99.90;;;;;;5070380;28;20131;-68
2023/06/22 05:55:53;;;;;;;6.32;3.08;;;23.50;99.90;;;;;;5069390;28;20039;-68
2023/06/22 05:58:18;;;;;;;6.03;2.97;;;23.60;99.90;;;;;;5069237;28;20442;-69
2023/06/22 06:00:44;;;;;;;6.10;3.53;;;23.70;99.90;;;;;;5069664;28;20075;-68
2023/06/22 06:03:10;;;;;;;7.18;3.42;;;23.80;99.90;;;;;;5050302;28;20028;-69
2023/06/22 06:05:37;;;;;;;5.63;3.03;;;23.90;99.90;;;;;;5049117;28;20041;-69
2023/06/22 06:08:05;;;;;;;7.20;3.53;;;23.80;99.90;;;;;;5049412;28;20117;-69
2023/06/22 06:10:33;;;;;;;5.55;2.72;;;23.90;99.90;;;;;;5056344;28;20522;-67
2023/06/22 06:13:02;;;;;;;4.93;2.80;;;23.70;99.90;;;;;;5089423;28;20050;-69
2023/06/22 06:15:28;;;;;;;5.82;2.75;;;23.80;99.90;;;;;;5089270;28;20028;-69
2023/06/22 06:17:54;;;;;;;6.80;3.63;;;23.80;99.90;;;;;;5090449;28;20039;-69
2023/06/22 06:20:22;;;;;;;5.57;3.42;;;24.00;99.90;;;;;;5090281;28;20020;-68
2023/06/22 06:22:49;;;;;;;7.32;2.97;;;24.20;99.90;;;;;;5090277;28;20031;-68
2023/06/22 06:25:16;;;;;;;5.60;2.67;;;24.20;99.90;;;;;;5094607;28;20107;-68
2023/06/22 06:27:46;;;;;;;4.70;2.72;;;24.20;99.90;;;;;;5093065;28;20031;-68
2023/06/22 06:30:14;;;;;;;4.97;2.58;;;24.20;99.90;;;;;;5093258;28;20031;-68
2023/06/22 06:32:41;;;;;;;6.10;2.75;;;24.30;99.90;;;;;;5093017;28;20100;-68
2023/06/22 06:35:11;;;;;;;5.15;2.30;;;24.50;99.90;;;;;;5093205;28;20032;-68
2023/06/22 06:37:39;;;;;;;5.13;2.60;;;24.60;99.90;;;;;;5094486;28;20111;-67
2023/06/22 06:40:10;;;;;;;4.18;2.40;;;24.80;99.90;;;;;;5092802;28;20043;-68
2023/06/22 06:42:41;;;;;;;5.18;2.78;;;24.80;99.90;;;;;;5092957;28;20399;-68
2023/06/22 06:45:12;;;;;;;5.85;2.20;;;24.80;99.90;;;;;;5094595;28;20028;-68
2023/06/22 06:47:38;;;;;;;5.07;2.20;;;24.80;99.90;;;;;;5092994;28;20154;-68
2023/06/22 06:50:06;;;;;;;6.28;2.60;;;24.90;99.90;;;;;;5094138;28;20180;-68
2023/06/22 06:52:32;;;;;;;4.20;2.15;;;25.10;99.90;;;;;;5092532;28;20024;-68
2023/06/22 06:54:58;;;;;;;7.22;2.88;;;25.10;99.90;;;;;;5094473;28;20032;-68
2023/06/22 06:57:28;;;;;;;4.20;2.22;;;25.20;99.90;;;;;;5094116;28;20414;-68
2023/06/22 06:59:57;;;;;;;4.20;2.03;;;25.30;99.90;;;;;;5092469;28;20035;-70
2023/06/22 07:02:23;;;;;;;3.88;2.20;;;25.30;99.90;;;;;;5092692;28;20035;-67
2023/06/22 07:04:50;;;;;;;6.15;2.70;;;25.30;99.90;;;;;;5092745;28;20126;-67
2023/06/22 07:07:16;;;;;;;4.22;2.28;;;25.40;99.90;;;;;;5093708;28;20034;-68
2023/06/22 07:09:42;;;;;;;4.20;2.45;;;25.30;99.90;;;;;;5092321;28;20024;-68
2023/06/22 07:12:08;;;;;;;4.43;2.40;;;25.50;99.90;;;;;;5076304;28;20707;-68
2023/06/22 07:14:34;;;;;;;5.28;2.55;;;25.20;99.90;;;;;;5073339;28;20120;-66
2023/06/22 07:16:59;;;;;;;4.57;2.58;;;25.30;99.90;;;;;;5072222;28;20111;-67
2023/06/22 07:19:27;;;;;;;6.90;2.75;;;25.30;99.90;;;;;;5073303;28;20032;-67
2023/06/22 07:21:54;;;;;;;5.32;2.58;;;25.30;99.90;;;;;;5072033;28;20033;-67
2023/06/22 07:24:24;;;;;;;5.30;2.55;;;25.50;99.90;;;;;;5072911;28;20024;-67
2023/06/22 07:26:50;;;;;;;4.97;2.30;;;25.70;99.90;;;;;;5073372;28;20025;-70
2023/06/22 07:29:22;;;;;;;8.27;2.40;;;25.70;99.90;;;;;;5073136;28;20024;-68
2023/06/22 07:31:51;;;;;;;7.45;2.83;;;25.70;99.90;;;;;;5073021;28;20035;-67
2023/06/22 07:34:17;;;;;;;4.35;2.63;;;25.80;99.90;;;;;;5070933;28;20017;-69
2023/06/22 07:36:44;;;;;;;4.35;2.40;;;25.90;99.90;;;;;;5072001;28;20038;-69
2023/06/22 07:39:10;;;;;;;5.10;2.05;;;26.10;99.90;;;;;;5072807;28;20115;-67
2023/06/22 07:41:36;;;;;;;5.03;2.45;;;26.20;99.90;;;;;;5071576;28;20124;-68
2023/06/22 07:44:03;;;;;;;5.30;2.65;;;26.30;99.90;;;;;;5072855;28;20086;-67
2023/06/22 07:46:30;;;;;;;5.00;2.00;;;26.50;99.90;;;;;;5072841;28;20043;-68
2023/06/22 07:48:57;;;;;;;4.25;2.20;;;26.60;99.90;;;;;;5071363;28;20063;-68
2023/06/22 07:51:23;;;;;;;3.10;1.92;;;26.60;99.90;;;;;;5072588;28;20020;-68
2023/06/22 07:53:49;;;;;;;6.85;2.40;;;26.50;99.90;;;;;;5054970;28;20107;-69
2023/06/22 07:56:18;;;;;;;5.68;2.40;;;26.50;99.90;;;;;;5071358;28;20036;-69
2023/06/22 07:58:46;;;;;;;8.52;3.00;;;26.40;99.90;;;;;;5072496;28;20043;-68
2023/06/22 08:01:12;;;;;;;4.97;2.70;;;26.60;99.90;;;;;;5072070;28;20064;-68
2023/06/22 08:03:39;;;;;;;3.72;2.25;;;26.40;99.90;;;;;;5072306;28;20041;-68
2023/06/22 08:06:05;;;;;;;4.68;2.33;;;26.60;99.90;;;;;;5072435;28;20047;-69
2023/06/22 08:08:31;;;;;;;8.98;2.92;;;26.80;99.90;;;;;;5071083;28;20029;-68
2023/06/22 08:10:57;;;;;;;4.20;2.42;;;26.90;99.90;;;;;;5079290;28;20486;-68
2023/06/22 08:13:23;;;;;;;3.60;1.98;;;27.00;99.90;;;;;;5091315;28;20042;-67
2023/06/22 08:15:49;;;;;;;4.68;1.95;;;27.20;99.90;;;;;;5092502;28;20036;-68
2023/06/22 08:18:16;;;;;;;6.03;2.35;;;26.90;99.90;;;;;;5092510;28;20054;-68
2023/06/22 08:20:42;;;;;;;3.53;1.75;;;26.90;99.90;;;;;;5092197;28;20518;-68
2023/06/22 08:23:08;;;;;;;4.15;2.05;;;26.90;99.90;;;;;;5092472;28;20064;-68
2023/06/22 08:25:34;;;;;;;6.53;2.33;;;27.10;99.90;;;;;;5091178;28;20074;-68
2023/06/22 08:28:04;;;;;;;7.35;2.80;;;27.40;99.90;;;;;;5092244;28;20016;-68
2023/06/22 08:30:30;;;;;;;7.30;2.40;;;27.70;99.90;;;;;;5092270;28;20137;-68
2023/06/22 08:32:56;;;;;;;5.20;2.40;;;27.60;99.90;;;;;;5092180;28;20036;-68
2023/06/22 08:35:25;;;;;;;3.92;2.10;;;27.60;99.90;;;;;;5092156;28;20028;-68
2023/06/22 08:37:56;;;;;;;3.50;2.10;;;27.40;99.90;;;;;;5077122;28;20032;-68
2023/06/22 08:40:23;;;;;;;6.35;2.22;;;27.40;99.90;;;;;;5071703;28;20035;-70
2023/06/22 08:42:49;;;;;;;4.45;1.90;;;27.60;99.90;;;;;;5070651;28;20119;-67
2023/06/22 08:45:15;;;;;;;4.13;2.00;;;27.80;99.90;;;;;;5071793;28;20039;-67
2023/06/22 08:47:42;;;;;;;4.25;2.10;;;27.60;99.90;;;;;;5086390;28;20024;-67
2023/06/22 08:50:09;;;;;;;5.25;2.17;;;27.80;99.90;;;;;;5086683;28;20078;-68
2023/06/22 08:52:36;;;;;;;5.53;1.80;;;28.20;99.90;;;;;;5070371;28;20025;-68
2023/06/22 08:55:02;;;;;;;4.03;2.10;;;28.40;99.90;;;;;;5071070;28;20029;-68
2023/06/22 08:57:28;;;;;;;3.40;1.70;;;28.50;99.90;;;;;;5071316;28;20093;-68
2023/06/22 08:59:58;;;;;;;3.15;1.90;;;28.50;99.90;;;;;;5071137;28;20039;-68
2023/06/22 09:02:30;;;;;;;4.18;1.85;;;28.60;99.90;;;;;;5070350;28;20556;-68
2023/06/22 09:04:59;;;;;;;4.50;2.63;;;28.40;99.90;;;;;;5066576;22;20057;-68
2023/06/22 09:07:25;;;;;;;7.60;2.58;;;28.40;99.90;;;;;;5038610;28;20033;-68
2023/06/22 09:09:51;;;;;;;6.63;2.30;;;28.50;99.90;;;;;;5030970;28;20476;-67
2023/06/22 09:12:25;;;;;;;3.80;1.90;;;28.80;99.90;;;;;;5013599;28;20040;-68
2023/06/22 09:14:51;;;;;;;5.45;2.20;;;28.80;99.90;;;;;;5031207;28;20057;-68
2023/06/22 09:17:17;;;;;;;2.80;1.63;;;28.00;99.90;;;;;;5031218;28;20112;-67
2023/06/22 09:19:43;;;;;;;6.88;2.33;;;28.20;99.90;;;;;;5030867;28;20124;-68
2023/06/22 09:22:08;;;;;;;4.50;2.10;;;28.60;99.90;;;;;;5031344;28;20037;-67
2023/06/22 09:24:34;;;;;;;4.88;2.17;;;28.90;99.90;;;;;;5031069;28;20551;-68
2023/06/22 09:27:00;;;;;;;4.20;1.80;;;29.00;99.40;;;;;;5029832;28;20036;-68
2023/06/22 09:29:26;;;;;;;3.47;1.80;;;29.10;99.70;;;;;;5031115;28;20049;-68
2023/06/22 09:31:53;;;;;;;6.72;2.30;;;29.10;98.90;;;;;;5030754;28;20392;-68
2023/06/22 09:34:20;;;;;;;3.90;2.05;;;29.20;97.90;;;;;;5029759;28;20022;-68
2023/06/22 09:36:48;;;;;;;3.85;1.85;;;29.10;97.50;;;;;;5030803;28;20036;-68
2023/06/22 09:39:14;;;;;;;4.35;1.83;;;29.30;97.60;;;;;;5030818;28;20029;-68
2023/06/22 09:41:40;;;;;;;3.25;2.00;;;29.30;97.20;;;;;;5030479;28;20040;-68
2023/06/22 09:44:06;;;;;;;4.65;2.00;;;29.40;97.60;;;;;;5029474;28;20042;-69
2023/06/22 09:46:32;;;;;;;4.43;1.80;;;29.60;96.90;;;;;;5030816;28;20037;-68
2023/06/22 09:48:57;;;;;;;6.90;1.77;;;29.90;97.10;;;;;;5029591;28;20579;-68
2023/06/22 09:51:23;;;;;;;5.75;2.17;;;29.90;95.90;;;;;;5029212;28;20033;-68
2023/06/22 09:53:50;;;;;;;6.18;2.30;;;30.00;95.50;;;;;;5030560;28;20031;-68
2023/06/22 09:56:16;;;;;;;2.42;1.77;;;30.10;94.90;;;;;;5030620;28;20029;-68
2023/06/22 09:58:44;;;;;;;3.60;2.00;;;30.30;94.90;;;;;;5030305;28;20029;-68
2023/06/22 10:01:10;;;;;;;4.35;1.80;;;30.60;94.40;;;;;;5029176;28;20036;-68
2023/06/22 10:03:37;;;;;;;4.03;2.03;;;30.40;94.00;;;;;;5029271;28;20125;-69
2023/06/22 10:06:03;;;;;;;3.10;1.83;;;30.50;94.50;;;;;;5030284;28;20033;-68
2023/06/22 10:08:29;;;;;;;3.03;1.90;;;30.50;94.30;;;;;;5029709;28;20041;-68
2023/06/22 10:10:54;;;;;;;6.72;2.08;;;30.20;93.40;;;;;;5026064;28;20022;-68
2023/06/22 10:13:20;;;;;;;3.35;1.95;;;30.40;93.50;;;;;;5011119;28;20097;-68
2023/06/22 10:15:51;;;;;;;5.32;2.13;;;30.50;93.90;;;;;;4993020;28;20025;-68
2023/06/22 10:18:17;;;;;;;;;;;30.80;93.30;;;;;;5011326;28;20026;-69
2023/06/22 10:20:43;;;;;;;4.75;2.10;;;30.80;93.00;;;;;;5010325;28;20334;-68
2023/06/22 10:23:09;;;;;;;5.82;2.05;;;30.90;93.00;;;;;;5010629;28;20112;-68
2023/06/22 10:25:35;;;;;;;4.55;2.00;;;30.70;93.10;;;;;;5010590;28;20080;-67
2023/06/22 10:28:01;;;;;;;5.38;2.72;;;30.80;93.50;;;;;;5010714;28;20108;-67
2023/06/22 10:30:26;;;;;;;5.32;1.98;;;31.00;93.40;;;;;;5010745;28;20029;-68
2023/06/22 10:32:52;;;;;;;7.07;2.38;;;31.00;93.50;;;;;;5010302;28;20034;-67
2023/06/22 10:35:18;;;;;;;3.95;1.77;;;31.30;93.60;;;;;;5009953;28;20047;-67
2023/06/22 10:37:45;;;;;;;3.80;2.10;;;30.80;93.20;;;;;;4982764;28;20527;-68
2023/06/22 10:40:13;;;;;;;3.72;1.88;;;31.00;93.70;;;;;;4997797;28;20026;-68
2023/06/22 10:42:39;;;;;;;4.60;2.25;;;30.90;94.20;;;;;;4991072;28;20034;-68
2023/06/22 10:45:06;;;;;;;4.63;2.72;;;30.90;93.40;;;;;;4973596;28;20023;-67
2023/06/22 10:47:31;;;;;;;4.70;2.20;;;30.80;93.30;;;;;;4990618;28;20663;-68
2023/06/22 10:49:57;;;;;;;6.10;2.03;;;30.90;93.10;;;;;;4973229;28;20023;-68
2023/06/22 10:52:23;;;;;;;6.32;1.95;;;31.20;93.30;;;;;;4990759;28;20038;-68
2023/06/22 10:54:48;;;;;;;3.30;1.85;;;31.00;93.40;;;;;;4990373;28;20030;-68
2023/06/22 10:57:14;;;;;;;3.03;1.73;;;31.30;93.50;;;;;;4990852;28;20035;-68
2023/06/22 10:59:40;;;;;;;4.40;2.50;;;31.20;93.60;;;;;;4990588;28;20536;-68
2023/06/22 11:02:06;;;;;;;5.10;1.90;;;31.40;93.80;;;;;;4990889;28;20077;-68
2023/06/22 11:04:32;;;;;;;3.83;1.98;;;31.70;93.40;;;;;;4990520;28;20043;-68
2023/06/22 11:06:57;;;;;;;5.95;3.00;;;31.60;92.20;;;;;;4989703;28;20048;-70
2023/06/22 11:09:23;;;;;;;5.47;2.80;;;31.60;93.20;;;;;;4973705;28;20140;-70
2023/06/22 11:11:54;;;;;;;8.18;2.63;;;31.70;92.50;;;;;;4994046;28;20478;-71
2023/06/22 11:14:21;;;;;;;4.22;1.92;;;31.60;92.50;;;;;;4994155;28;20030;-71
2023/06/22 11:16:47;;;;;;;4.43;2.30;;;31.50;93.30;;;;;;4976684;28;20030;-72
2023/06/22 11:19:13;;;;;;;4.88;2.10;;;31.50;92.70;;;;;;4976530;28;20390;-71
2023/06/22 11:21:39;;;;;;;6.32;2.15;;;31.50;92.80;;;;;;4993315;28;20478;-69
2023/06/22 11:24:05;;;;;;;4.88;2.08;;;31.60;92.60;;;;;;4993994;28;20037;-69
2023/06/22 11:26:31;;;;;;;5.32;2.38;;;31.80;92.20;;;;;;4993931;28;20052;-70
2023/06/22 11:28:58;;;;;;;4.70;2.20;;;31.80;91.50;;;;;;4976860;28;20026;-71
2023/06/22 11:31:24;;;;;;;9.88;3.08;;;31.80;91.80;;;;;;4993771;28;20062;-72
2023/06/22 11:33:50;;;;;;;11.00;2.88;;;31.80;92.10;;;;;;4976233;28;20085;-69
2023/06/22 11:36:16;;;;;;;5.40;2.22;;;31.90;91.40;;;;;;4976130;28;20545;-68
2023/06/22 11:38:43;;;;;;;4.55;2.25;;;32.30;90.30;;;;;;4976262;28;20558;-69
2023/06/22 11:41:10;;;;;;;5.80;2.28;;;32.50;90.60;;;;;;4993295;28;20046;-69
2023/06/22 11:43:37;;;;;;;4.80;1.85;;;33.00;89.90;;;;;;4979423;28;20038;-69
2023/06/22 11:46:03;;;;;;;4.13;1.90;;;32.20;90.80;;;;;;4976463;28;20030;-67
2023/06/22 11:48:30;;;;;;;5.53;2.75;;;32.00;91.30;;;;;;4976407;28;20026;-66
2023/06/22 11:50:56;;;;;;;4.97;2.65;;;31.70;91.70;;;;;;4992897;28;20132;-68
2023/06/22 11:53:24;;;;;;;3.83;2.33;;;31.80;91.90;;;;;;4976107;28;20030;-68
2023/06/22 11:55:50;;;;;;;4.28;1.85;;;31.70;91.80;;;;;;4959661;28;20026;-67
2023/06/22 11:58:16;;;;;;;6.50;2.53;;;31.80;91.60;;;;;;4976293;28;20048;-69
2023/06/22 12:00:42;;;;;;;5.97;2.63;;;31.70;91.90;;;;;;4992792;28;20030;-69
2023/06/22 12:03:09;;;;;;;4.55;2.65;;;31.90;91.50;;;;;;4993084;28;20113;-69
2023/06/22 12:05:34;;;;;;;3.63;2.10;;;31.90;91.80;;;;;;4992621;28;20051;-69
2023/06/22 12:08:00;;;;;;;4.68;2.13;;;32.10;91.60;;;;;;4992642;28;20102;-70
2023/06/22 12:10:28;;;;;;;3.63;2.10;;;32.30;90.50;;;;;;4992499;28;20040;-70
2023/06/22 12:12:54;;;;;;;5.38;2.33;;;32.70;89.70;;;;;;4975668;28;20033;-69
2023/06/22 12:15:20;;;;;;;5.13;2.42;;;32.50;88.90;;;;;;4992828;28;20067;-69
2023/06/22 12:17:47;;;;;;;3.40;2.15;;;32.50;88.50;;;;;;4975480;28;20544;-70
2023/06/22 12:20:14;;;;;;;7.57;1.88;;;32.50;88.20;;;;;;4975081;28;20054;-69
2023/06/22 12:22:41;;;;;;;8.48;2.95;;;32.20;88.50;;;;;;4975374;28;20081;-68
2023/06/22 12:25:08;;;;;;;10.27;2.47;;;32.30;88.00;;;;;;4975279;28;20026;-69
2023/06/22 12:27:37;;;;;;;4.90;2.53;;;32.40;89.20;;;;;;4974973;28;20034;-69
2023/06/22 12:30:05;;;;;;;5.13;2.53;;;32.60;86.60;;;;;;4975090;28;20511;-69
2023/06/22 12:32:31;;;;;;;4.30;2.05;;;32.70;87.00;;;;;;4975191;28;20037;-69
2023/06/22 12:34:57;;;;;;;5.22;2.85;;;32.70;86.40;;;;;;4975062;28;20026;-64
2023/06/22 12:37:23;;;;;;;4.20;2.05;;;32.70;88.10;;;;;;4992523;28;20030;-65
2023/06/22 12:39:49;;;;;;;3.70;1.48;;;32.90;87.00;;;;;;4992103;28;20038;-65
2023/06/22 12:42:16;;;;;;;8.27;3.13;;;32.70;86.00;;;;;;4992548;28;20030;-67
2023/06/22 12:44:42;;;;;;;5.28;1.88;;;32.90;87.80;;;;;;4974849;28;20031;-69
2023/06/22 12:47:09;;;;;;;5.35;2.20;;;33.20;86.90;;;;;;4975137;28;20038;-68